createdAt,value
2022-08-05T00:00:17.229Z,53.83
2022-08-05T00:02:51.786Z,53.92
2022-08-05T00:06:03.154Z,55.44
2022-08-05T00:08:32.432Z,54.94
2022-08-05T00:10:57.180Z,54.27
2022-08-05T00:13:39.538Z,53.75
2022-08-05T00:16:09.585Z,53.31
2022-08-05T00:18:39.592Z,54.04
2022-08-05T00:21:08.235Z,54.92
2022-08-05T00:23:45.881Z,53.79
2022-08-05T00:26:20.580Z,54.27
2022-08-05T00:28:47.206Z,54.60
2022-08-05T00:31:16.299Z,55.89
2022-08-05T00:34:55.990Z,56.02
2022-08-05T00:37:11.495Z,56.93
2022-08-05T00:39:16.541Z,56.63
2022-08-05T00:41:55.010Z,58.67
2022-08-05T00:44:23.170Z,56.51
2022-08-05T00:46:54.315Z,56.25
2022-08-05T00:49:32.498Z,57.87
2022-08-05T00:52:00.154Z,59.12
2022-08-05T00:54:28.103Z,59.35
2022-08-05T00:56:57.047Z,58.01
2022-08-05T00:59:23.945Z,56.70
2022-08-05T01:01:51.176Z,58.40
2022-08-05T01:04:20.378Z,57.95
2022-08-05T01:06:53.797Z,58.77
2022-08-05T01:09:22.302Z,56.87
2022-08-05T01:11:52.103Z,57.14
2022-08-05T01:14:33.244Z,58.05
2022-08-05T01:17:05.525Z,60.58
2022-08-05T01:20:01.338Z,61.08
2022-08-05T01:22:34.549Z,62.39
2022-08-05T01:25:40.726Z,63.87
2022-08-05T01:28:15.790Z,64.16
2022-08-05T01:30:55.278Z,69.18
2022-08-05T01:33:26.236Z,65.57
2022-08-05T01:35:57.451Z,70.14
2022-08-05T01:38:29.280Z,71.34
2022-08-05T01:41:01.939Z,73.44
2022-08-05T01:43:30.391Z,70.13
2022-08-05T01:45:58.436Z,67.70
2022-08-05T01:48:36.316Z,68.13
2022-08-05T01:51:12.275Z,70.24
2022-08-05T01:53:58.048Z,66.70
2022-08-05T01:58:09.315Z,72.41
2022-08-05T01:59:21.877Z,69.99
2022-08-05T02:01:52.682Z,72.83
2022-08-05T02:04:24.239Z,71.45
2022-08-05T02:06:52.807Z,72.29
2022-08-05T02:09:20.659Z,73.53
2022-08-05T02:12:19.677Z,73.79
2022-08-05T02:15:12.193Z,76.58
2022-08-05T02:18:30.790Z,76.37
2022-08-05T02:20:49.640Z,76.39
2022-08-05T02:23:20.158Z,78.11
2022-08-05T02:25:50.569Z,77.93
2022-08-05T02:28:29.356Z,78.25
2022-08-05T02:31:01.043Z,80.30
2022-08-05T02:33:36.183Z,80.85
2022-08-05T02:36:09.432Z,79.71
2022-08-05T02:38:37.843Z,85.62
2022-08-05T02:41:16.984Z,80.56
2022-08-05T02:44:06.137Z,74.96
2022-08-05T02:46:33.444Z,80.06
2022-08-05T02:49:01.458Z,80.71
2022-08-05T02:52:03.853Z,81.50
2022-08-05T02:54:35.580Z,79.42
2022-08-05T02:57:03.084Z,81.82
2022-08-05T02:59:47.801Z,83.00
2022-08-05T03:02:20.556Z,81.46
2022-08-05T03:04:53.095Z,81.70
2022-08-05T03:07:40.314Z,81.97
2022-08-05T03:10:08.864Z,81.86
2022-08-05T03:12:38.342Z,81.52
2022-08-05T03:15:07.690Z,82.88
2022-08-05T03:17:41.426Z,79.71
2022-08-05T03:20:10.164Z,78.77
2022-08-05T03:22:37.074Z,79.02
2022-08-05T03:25:31.653Z,81.41
2022-08-05T03:27:58.048Z,81.60
2022-08-05T03:30:33.670Z,81.30
2022-08-05T03:33:03.009Z,82.62
2022-08-05T03:35:30.984Z,86.64
2022-08-05T03:38:02.650Z,84.17
2022-08-05T03:40:32.120Z,89.53
2022-08-05T03:43:15.890Z,89.53
2022-08-05T03:45:57.728Z,87.69
2022-08-05T03:48:25.613Z,87.34
2022-08-05T03:52:35.266Z,92.28
2022-08-05T03:55:53.614Z,94.79
2022-08-05T03:56:42.186Z,88.10
2022-08-05T03:59:13.825Z,91.15
2022-08-05T04:01:49.322Z,91.02
2022-08-05T04:04:21.099Z,88.50
2022-08-05T04:06:50.989Z,90.45
2022-08-05T04:09:26.127Z,89.28
2022-08-05T04:11:56.816Z,90.82
2022-08-05T04:14:30.192Z,92.28
2022-08-05T04:16:58.918Z,89.91
2022-08-05T04:19:25.706Z,85.90
2022-08-05T04:22:08.433Z,84.17
2022-08-05T04:24:44.700Z,87.55
2022-08-05T04:27:19.274Z,92.80
2022-08-05T04:30:00.010Z,87.89
2022-08-05T04:32:30.823Z,88.38
2022-08-05T04:35:00.112Z,87.09
2022-08-05T04:38:02.260Z,88.59
2022-08-05T04:40:13.369Z,90.03
2022-08-05T04:42:46.399Z,93.06
2022-08-05T04:45:14.134Z,90.96
2022-08-05T04:47:49.676Z,91.05
2022-08-05T04:50:37.302Z,91.35
2022-08-05T04:53:04.372Z,93.47
2022-08-05T04:56:14.587Z,89.76
2022-08-05T04:58:21.517Z,90.91
2022-08-05T05:00:50.689Z,90.33
2022-08-05T05:03:20.339Z,89.99
2022-08-05T05:06:39.760Z,91.16
2022-08-05T05:08:33.714Z,89.15
2022-08-05T05:11:00.302Z,85.68
2022-08-05T05:13:27.017Z,89.00
2022-08-05T05:16:02.121Z,83.15
2022-08-05T05:18:33.833Z,75.19
2022-08-05T05:21:02.097Z,66.61
2022-08-05T05:23:38.987Z,63.48
2022-08-05T05:26:16.629Z,59.56
2022-08-05T05:28:45.001Z,56.66
2022-08-05T05:31:12.510Z,56.52
2022-08-05T05:33:58.620Z,55.14
2022-08-05T05:36:28.325Z,55.44
2022-08-05T05:38:55.648Z,59.99
2022-08-05T05:41:22.244Z,61.77
2022-08-05T05:43:57.598Z,59.69
2022-08-05T05:46:27.034Z,64.67
2022-08-05T05:48:53.827Z,64.38
2022-08-05T05:51:25.547Z,61.72
2022-08-05T05:53:58.644Z,60.99
2022-08-05T05:56:33.813Z,56.33
2022-08-05T05:59:05.506Z,61.11
2022-08-05T06:01:37.654Z,61.41
2022-08-05T06:04:14.334Z,62.60
2022-08-05T06:06:43.020Z,63.22
2022-08-05T06:09:18.086Z,62.42
2022-08-05T06:11:59.633Z,57.33
2022-08-05T06:14:29.238Z,54.94
2022-08-05T06:16:56.816Z,59.30
2022-08-05T06:19:26.126Z,53.75
2022-08-05T06:22:06.445Z,48.63
2022-08-05T06:24:34.777Z,46.17
2022-08-05T06:27:02.043Z,44.18
2022-08-05T06:29:48.964Z,43.47
2022-08-05T06:32:25.393Z,43.65
2022-08-05T06:34:57.290Z,42.61
2022-08-05T06:37:56.390Z,41.73
2022-08-05T06:40:18.468Z,41.73
2022-08-05T06:42:51.960Z,40.79
2022-08-05T06:45:20.690Z,40.52
2022-08-05T06:48:47.377Z,39.61
2022-08-05T06:50:34.796Z,38.97
2022-08-05T06:53:11.722Z,38.91
2022-08-05T06:55:48.353Z,38.19
2022-08-05T06:58:29.186Z,39.14
2022-08-05T07:01:01.700Z,38.10
2022-08-05T07:03:32.743Z,40.21
2022-08-05T07:06:05.674Z,41.36
2022-08-05T07:08:41.884Z,41.39
2022-08-05T07:11:15.497Z,43.28
2022-08-05T07:14:01.496Z,43.87
2022-08-05T07:18:08.176Z,43.60
2022-08-05T07:22:29.031Z,43.98
2022-08-05T07:25:21.956Z,44.16
2022-08-05T07:27:57.543Z,43.40
2022-08-05T07:30:32.598Z,43.42
2022-08-05T07:33:09.022Z,43.92
2022-08-05T07:36:03.792Z,43.74
2022-08-05T07:38:26.430Z,43.56
2022-08-05T07:42:07.743Z,43.34
2022-08-05T07:43:53.014Z,42.23
2022-08-05T07:46:25.121Z,41.76
2022-08-05T07:49:02.328Z,42.15
2022-08-05T07:51:37.609Z,42.18
2022-08-05T07:54:15.166Z,42.24
2022-08-05T07:57:01.345Z,41.17
2022-08-05T07:59:38.402Z,41.31
2022-08-05T08:02:16.134Z,39.70
2022-08-05T08:04:47.402Z,38.77
2022-08-05T08:07:15.050Z,38.29
2022-08-05T08:09:42.382Z,37.03
2022-08-05T08:12:27.564Z,36.00
2022-08-05T08:14:56.668Z,35.16
2022-08-05T08:17:28.893Z,35.01
2022-08-05T08:20:22.067Z,34.03
2022-08-05T08:22:43.561Z,34.21
2022-08-05T08:25:16.479Z,33.65
2022-08-05T08:27:47.948Z,33.30
2022-08-05T08:30:32.416Z,34.23
2022-08-05T08:33:04.359Z,34.39
2022-08-05T08:35:40.944Z,34.32
2022-08-05T08:38:11.600Z,33.26
2022-08-05T08:40:50.456Z,33.19
2022-08-05T08:45:04.479Z,32.54
2022-08-05T08:46:09.973Z,32.95
2022-08-05T08:49:07.511Z,32.25
2022-08-05T08:52:05.817Z,30.96
2022-08-05T08:54:21.331Z,31.05
2022-08-05T08:56:54.334Z,30.84
2022-08-05T08:59:27.871Z,30.08
2022-08-05T09:02:05.975Z,29.49
2022-08-05T09:04:58.620Z,28.80
2022-08-05T09:07:29.164Z,28.29
2022-08-05T09:10:06.522Z,28.29
2022-08-05T09:12:34.607Z,28.07
2022-08-05T09:15:06.382Z,28.64
2022-08-05T09:17:42.283Z,28.74
2022-08-05T09:20:12.921Z,28.62
2022-08-05T09:23:18.451Z,29.51
2022-08-05T09:26:01.957Z,30.38
2022-08-05T09:28:33.210Z,29.99
2022-08-05T09:31:22.988Z,31.06
2022-08-05T09:33:56.237Z,30.75
2022-08-05T09:36:27.943Z,31.80
2022-08-05T09:39:03.813Z,31.42
2022-08-05T09:42:07.734Z,31.51
2022-08-05T09:44:39.421Z,31.59
2022-08-05T09:47:21.578Z,30.48
2022-08-05T09:50:01.315Z,31.54
2022-08-05T09:52:36.709Z,30.48
2022-08-05T09:55:56.349Z,30.46
2022-08-05T09:58:13.321Z,30.04
2022-08-05T10:00:40.196Z,29.28
2022-08-05T10:03:11.527Z,29.04
2022-08-05T10:05:38.909Z,28.64
2022-08-05T10:08:36.586Z,28.99
2022-08-05T10:10:54.656Z,29.30
2022-08-05T10:13:45.627Z,28.97
2022-08-05T10:16:41.876Z,28.84
2022-08-05T10:19:23.870Z,29.29
2022-08-05T10:21:59.144Z,28.09
2022-08-05T10:24:27.431Z,28.37
2022-08-05T10:26:56.754Z,28.02
2022-08-05T10:30:06.480Z,27.83
2022-08-05T10:33:01.286Z,27.59
2022-08-05T10:35:07.006Z,27.54
2022-08-05T10:37:40.474Z,27.06
2022-08-05T10:40:29.796Z,27.80
2022-08-05T10:43:07.790Z,27.89
2022-08-05T10:45:40.009Z,27.12
2022-08-05T10:48:52.519Z,26.61
2022-08-05T10:51:28.827Z,27.04
2022-08-05T10:54:01.071Z,27.21
2022-08-05T10:56:45.003Z,26.89
2022-08-05T11:00:03.155Z,27.18
2022-08-05T11:02:14.546Z,27.12
2022-08-05T11:04:57.047Z,27.53
2022-08-05T11:07:32.911Z,27.63
2022-08-05T11:10:27.227Z,27.06
2022-08-05T11:12:57.312Z,27.26
2022-08-05T11:15:59.099Z,27.65
2022-08-05T11:18:29.689Z,27.97
2022-08-05T11:20:57.564Z,27.62
2022-08-05T11:24:03.149Z,28.01
2022-08-05T11:26:32.199Z,27.99
2022-08-05T11:29:06.573Z,28.37
2022-08-05T11:31:56.648Z,28.96
2022-08-05T11:34:51.231Z,29.54
2022-08-05T11:38:36.405Z,29.34
2022-08-05T11:41:01.282Z,29.75
2022-08-05T11:44:08.496Z,30.71
2022-08-05T11:47:09.344Z,28.93
2022-08-05T11:49:27.910Z,29.89
2022-08-05T11:51:54.857Z,28.72
2022-08-05T11:54:33.131Z,29.33
2022-08-05T11:57:08.470Z,29.49
2022-08-05T11:59:49.851Z,28.81
2022-08-05T12:02:23.926Z,28.64
2022-08-05T12:04:59.178Z,28.52
2022-08-05T12:08:03.398Z,28.19
2022-08-05T12:10:19.655Z,28.88
2022-08-05T12:12:58.359Z,28.15
2022-08-05T12:15:35.682Z,27.97
2022-08-05T12:18:11.937Z,28.33
2022-08-05T12:20:39.312Z,28.05
2022-08-05T12:23:10.413Z,28.26
2022-08-05T12:25:56.821Z,26.77
2022-08-05T12:28:37.041Z,27.72
2022-08-05T12:31:05.560Z,27.97
2022-08-05T12:33:36.955Z,27.78
2022-08-05T12:36:09.306Z,27.27
2022-08-05T12:38:41.200Z,27.24
2022-08-05T12:41:14.026Z,27.78
2022-08-05T12:44:03.101Z,28.21
2022-08-05T12:46:31.845Z,28.55
2022-08-05T12:49:13.672Z,27.63
2022-08-05T12:52:12.955Z,28.60
2022-08-05T12:54:51.559Z,27.84
2022-08-05T12:57:19.385Z,26.89
2022-08-05T13:01:57.235Z,27.34
2022-08-05T13:02:40.229Z,27.17
2022-08-05T13:05:08.425Z,26.55
2022-08-05T13:07:57.826Z,27.39
2022-08-05T13:10:26.988Z,27.55
2022-08-05T13:12:58.082Z,27.42
2022-08-05T13:15:41.294Z,27.34
2022-08-05T13:18:09.113Z,26.74
2022-08-05T13:20:40.445Z,26.93
2022-08-05T13:23:07.621Z,27.00
2022-08-05T13:25:52.701Z,26.38
2022-08-05T13:28:22.290Z,26.97
2022-08-05T13:30:48.955Z,26.89
2022-08-05T13:34:21.665Z,26.49
2022-08-05T13:36:06.465Z,26.27
2022-08-05T13:38:38.536Z,25.88
2022-08-05T13:41:12.944Z,26.27
2022-08-05T13:43:45.924Z,26.14
2022-08-05T13:46:43.825Z,25.75
2022-08-05T13:49:11.780Z,24.69
2022-08-05T13:51:41.551Z,25.88
2022-08-05T13:54:13.641Z,25.02
2022-08-05T13:56:45.075Z,25.04
2022-08-05T13:59:21.348Z,25.53
2022-08-05T14:01:58.189Z,25.99
2022-08-05T14:04:54.750Z,25.78
2022-08-05T14:07:25.398Z,25.43
2022-08-05T14:10:19.116Z,25.35
2022-08-05T14:12:55.982Z,24.90
2022-08-05T14:16:04.817Z,24.73
2022-08-05T14:18:17.818Z,24.17
2022-08-05T14:20:49.011Z,25.30
2022-08-05T14:23:24.033Z,24.67
2022-08-05T14:25:54.604Z,23.74
2022-08-05T14:28:26.999Z,25.07
2022-08-05T14:30:55.106Z,24.02
2022-08-05T14:33:22.567Z,23.98
2022-08-05T14:35:51.688Z,24.21
2022-08-05T14:38:32.146Z,24.17
2022-08-05T14:41:06.171Z,24.32
2022-08-05T14:43:59.539Z,24.76
2022-08-05T14:46:29.596Z,24.52
2022-08-05T14:48:59.535Z,24.62
2022-08-05T14:51:31.177Z,24.41
2022-08-05T14:54:26.435Z,24.56
2022-08-05T14:56:46.864Z,25.27
2022-08-05T14:59:14.366Z,24.03
2022-08-05T15:01:48.373Z,25.00
2022-08-05T15:04:20.703Z,24.79
2022-08-05T15:06:52.411Z,24.31
2022-08-05T15:09:52.876Z,25.16
2022-08-05T15:12:07.046Z,25.43
2022-08-05T15:14:48.136Z,25.35
2022-08-05T15:17:45.656Z,25.17
2022-08-05T15:20:04.724Z,25.19
2022-08-05T15:22:31.403Z,25.97
2022-08-05T15:24:59.278Z,25.42
2022-08-05T15:27:26.536Z,25.11
2022-08-05T15:29:59.266Z,25.55
2022-08-05T15:32:28.570Z,25.37
2022-08-05T15:34:57.366Z,25.58
2022-08-05T15:38:34.387Z,25.84
2022-08-05T15:41:00.017Z,25.63
2022-08-05T15:43:09.181Z,25.70
2022-08-05T15:45:45.703Z,25.31
2022-08-05T15:48:14.235Z,25.60
2022-08-05T15:50:43.889Z,25.35
2022-08-05T15:53:13.218Z,26.14
2022-08-05T15:56:04.275Z,25.67
2022-08-05T15:58:29.213Z,25.60
2022-08-05T16:01:04.340Z,25.81
2022-08-05T16:03:43.101Z,26.02
2022-08-05T16:06:11.526Z,25.87
2022-08-05T16:08:38.815Z,25.78
2022-08-05T16:11:07.266Z,25.66
2022-08-05T16:13:35.169Z,26.06
2022-08-05T16:16:03.892Z,26.10
2022-08-05T16:18:32.960Z,25.87
2022-08-05T16:21:04.233Z,26.25
2022-08-05T16:23:53.076Z,25.87
2022-08-05T16:26:18.060Z,26.77
2022-08-05T16:28:44.663Z,26.94
2022-08-05T16:31:11.451Z,27.51
2022-08-05T16:33:41.681Z,27.92
2022-08-05T16:36:09.330Z,27.13
2022-08-05T16:38:35.958Z,26.92
2022-08-05T16:41:21.616Z,27.77
2022-08-05T16:43:56.458Z,27.41
2022-08-05T16:46:24.683Z,27.13
2022-08-05T16:48:51.858Z,26.48
2022-08-05T16:51:19.511Z,26.94
2022-08-05T16:54:03.913Z,27.29
2022-08-05T16:56:35.119Z,27.44
2022-08-05T16:59:08.299Z,27.50
2022-08-05T17:01:54.024Z,28.27
2022-08-05T17:04:26.425Z,27.91
2022-08-05T17:06:55.450Z,28.34
2022-08-05T17:09:22.892Z,28.25
2022-08-05T17:11:51.557Z,28.35
2022-08-05T17:14:22.382Z,28.52
2022-08-05T17:17:04.369Z,28.17
2022-08-05T17:19:31.267Z,28.30
2022-08-05T17:21:58.568Z,28.38
2022-08-05T17:24:35.136Z,29.11
2022-08-05T17:27:07.064Z,28.98
2022-08-05T17:29:41.037Z,28.73
2022-08-05T17:32:17.396Z,28.98
2022-08-05T17:34:47.913Z,28.90
2022-08-05T17:37:39.698Z,28.89
2022-08-05T17:40:02.209Z,29.34
2022-08-05T17:42:32.245Z,29.81
2022-08-05T17:45:17.668Z,29.93
2022-08-05T17:47:52.929Z,29.98
2022-08-05T17:50:28.178Z,30.20
2022-08-05T17:52:59.184Z,30.66
2022-08-05T17:55:34.363Z,30.81
2022-08-05T17:58:12.272Z,31.08
2022-08-05T18:00:47.567Z,31.76
2022-08-05T18:06:12.299Z,31.93
2022-08-05T18:08:45.804Z,32.10
2022-08-05T18:11:23.752Z,32.89
2022-08-05T18:13:53.324Z,33.39
2022-08-05T18:16:20.345Z,33.64
2022-08-05T18:18:47.970Z,33.80
2022-08-05T18:21:21.145Z,34.90
2022-08-05T18:23:50.106Z,35.60
2022-08-05T18:26:20.569Z,36.50
2022-08-05T18:28:47.174Z,36.09
2022-08-05T18:31:15.849Z,36.18
2022-08-05T18:33:47.184Z,36.37
2022-08-05T18:36:16.812Z,36.89
2022-08-05T18:38:46.155Z,37.09
2022-08-05T18:41:55.218Z,37.31
2022-08-05T18:44:05.757Z,37.63
2022-08-05T18:46:33.371Z,37.84
2022-08-05T18:49:20.622Z,38.13
2022-08-05T18:52:08.864Z,38.17
2022-08-05T18:54:41.451Z,38.33
2022-08-05T18:57:15.408Z,38.70
2022-08-05T19:00:01.887Z,38.39
2022-08-05T19:02:29.657Z,38.75
2022-08-05T19:05:02.477Z,38.78
2022-08-05T19:07:47.964Z,39.24
2022-08-05T19:10:28.134Z,39.28
2022-08-05T19:12:56.633Z,39.50
2022-08-05T19:15:56.825Z,39.68
2022-08-05T19:18:20.921Z,39.76
2022-08-05T19:20:51.579Z,39.97
2022-08-05T19:24:06.252Z,40.14
2022-08-05T19:26:09.239Z,39.90
2022-08-05T19:28:42.099Z,40.39
2022-08-05T19:31:13.595Z,40.04
2022-08-05T19:33:48.435Z,39.89
2022-08-05T19:36:29.417Z,40.22
2022-08-05T19:38:58.771Z,39.91
2022-08-05T19:41:58.093Z,40.09
2022-08-05T19:44:14.261Z,40.55
2022-08-05T19:46:41.474Z,40.17
2022-08-05T19:49:16.384Z,40.65
2022-08-05T19:52:08.239Z,40.83
2022-08-05T19:54:32.894Z,41.01
2022-08-05T19:57:02.668Z,41.11
2022-08-05T19:59:53.914Z,41.98
2022-08-05T20:02:23.277Z,41.46
2022-08-05T20:04:50.001Z,41.97
2022-08-05T20:07:47.981Z,42.21
2022-08-05T20:10:13.533Z,42.60
2022-08-05T20:12:47.777Z,43.23
2022-08-05T20:15:48.972Z,43.38
2022-08-05T20:18:09.756Z,43.76
2022-08-05T20:20:50.981Z,43.99
2022-08-05T20:23:17.750Z,44.30
2022-08-05T20:25:47.511Z,44.64
2022-08-05T20:28:15.893Z,47.45
2022-08-05T20:30:42.696Z,49.49
2022-08-05T20:33:09.690Z,50.94
2022-08-05T20:35:40.345Z,53.37
2022-08-05T20:38:14.390Z,54.54
2022-08-05T20:40:55.535Z,55.56
2022-08-05T20:43:57.678Z,56.14
2022-08-05T20:46:12.428Z,58.08
2022-08-05T20:48:45.346Z,59.50
2022-08-05T20:51:17.622Z,62.15
2022-08-05T20:53:44.342Z,62.38
2022-08-05T20:56:28.678Z,63.21
2022-08-05T20:59:04.025Z,65.36
2022-08-05T21:01:41.253Z,65.03
2022-08-05T21:04:10.664Z,65.45
2022-08-05T21:06:45.746Z,64.48
2022-08-05T21:09:14.922Z,65.38
2022-08-05T21:12:06.970Z,67.05
2022-08-05T21:14:34.700Z,68.42
2022-08-05T21:17:01.669Z,69.86
2022-08-05T21:19:29.920Z,71.47
2022-08-05T21:22:14.526Z,71.16
2022-08-05T21:24:41.185Z,72.22
2022-08-05T21:27:09.290Z,72.51
2022-08-05T21:29:40.689Z,74.41
2022-08-05T21:32:07.699Z,71.42
2022-08-05T21:34:35.515Z,75.23
2022-08-05T21:37:02.574Z,78.04
2022-08-05T21:39:29.544Z,79.04
2022-08-05T21:42:01.711Z,77.45
2022-08-05T21:44:30.288Z,80.52
2022-08-05T21:46:58.109Z,82.67
2022-08-05T21:49:58.523Z,81.87
2022-08-05T21:52:21.814Z,84.76
2022-08-05T21:54:55.334Z,85.92
2022-08-05T21:57:31.545Z,88.60
2022-08-05T22:00:06.387Z,88.36
2022-08-05T22:02:34.617Z,88.58
2022-08-05T22:05:01.315Z,88.42
2022-08-05T22:07:39.977Z,87.36
2022-08-05T22:10:17.677Z,86.88
2022-08-05T22:12:53.435Z,85.33
2022-08-05T22:16:00.341Z,85.78
2022-08-05T22:18:08.636Z,83.90
2022-08-05T22:20:38.989Z,84.40
2022-08-05T22:24:01.025Z,84.35
2022-08-05T22:26:30.591Z,85.87
2022-08-05T22:28:57.282Z,82.51
2022-08-05T22:31:24.999Z,80.74
2022-08-05T22:34:01.461Z,81.75
2022-08-05T22:36:29.163Z,79.85
2022-08-05T22:38:56.763Z,80.26
2022-08-05T22:41:26.338Z,84.55
2022-08-05T22:44:12.108Z,82.33
2022-08-05T22:46:40.652Z,79.23
2022-08-05T22:49:23.110Z,83.66
2022-08-05T22:52:04.700Z,80.44
2022-08-05T22:54:35.057Z,80.38
2022-08-05T22:57:02.864Z,80.29
2022-08-05T22:59:44.273Z,82.83
2022-08-05T23:02:16.902Z,85.23
2022-08-05T23:04:51.648Z,87.81
2022-08-05T23:07:22.127Z,99.44
2022-08-05T23:09:57.759Z,100.00
2022-08-05T23:12:32.875Z,100.00
2022-08-05T23:15:03.201Z,100.00
2022-08-05T23:17:35.037Z,100.00
2022-08-05T23:20:17.536Z,100.00
2022-08-05T23:22:47.305Z,100.00
2022-08-05T23:25:16.994Z,100.00
2022-08-05T23:28:02.205Z,100.00
2022-08-05T23:30:31.185Z,100.00
2022-08-05T23:32:58.854Z,100.00
2022-08-05T23:35:28.646Z,100.00
2022-08-05T23:38:01.385Z,100.00
2022-08-05T23:40:28.056Z,100.00
2022-08-05T23:42:54.805Z,100.00
2022-08-05T23:45:23.610Z,100.00
2022-08-05T23:47:53.653Z,100.00
2022-08-05T23:50:26.156Z,100.00
2022-08-05T23:52:55.390Z,100.00
2022-08-05T23:55:22.539Z,100.00
2022-08-05T23:57:57.515Z,100.00
